createdAt,value
2022-11-27T00:00:07.783Z,5.10
2022-11-27T00:00:39.537Z,5.10
2022-11-27T00:01:12.876Z,5.10
2022-11-27T00:01:44.756Z,5.10
2022-11-27T00:02:16.686Z,5.10
2022-11-27T00:02:49.803Z,5.00
2022-11-27T00:03:21.905Z,5.00
2022-11-27T00:03:55.818Z,5.00
2022-11-27T00:04:27.915Z,5.00
2022-11-27T00:04:59.717Z,5.00
2022-11-27T00:05:32.562Z,5.00
2022-11-27T00:06:06.906Z,4.90
2022-11-27T00:06:41.891Z,5.00
2022-11-27T00:07:14.056Z,4.90
2022-11-27T00:07:45.922Z,4.90
2022-11-27T00:08:18.812Z,5.00
2022-11-27T00:08:50.926Z,5.00
2022-11-27T00:09:25.073Z,5.00
2022-11-27T00:09:56.900Z,5.00
2022-11-27T00:10:28.688Z,5.00
2022-11-27T00:11:07.482Z,5.00
2022-11-27T00:11:40.233Z,5.00
2022-11-27T00:12:13.064Z,4.90
2022-11-27T00:12:44.819Z,4.90
2022-11-27T00:13:16.770Z,4.90
2022-11-27T00:13:50.743Z,5.00
2022-11-27T00:14:22.544Z,5.00
2022-11-27T00:14:55.798Z,5.00
2022-11-27T00:15:27.619Z,5.00
2022-11-27T00:15:59.437Z,5.00
2022-11-27T00:16:32.332Z,4.90
2022-11-27T00:17:04.303Z,4.90
2022-11-27T00:17:37.098Z,4.90
2022-11-27T00:18:09.272Z,4.90
2022-11-27T00:18:41.641Z,4.80
2022-11-27T00:19:14.610Z,4.80
2022-11-27T00:19:46.396Z,4.80
2022-11-27T00:20:18.238Z,4.80
2022-11-27T00:20:50.960Z,4.80
2022-11-27T00:21:25.923Z,4.80
2022-11-27T00:21:57.721Z,4.80
2022-11-27T00:22:30.640Z,4.80
2022-11-27T00:23:02.444Z,4.80
2022-11-27T00:23:35.012Z,4.80
2022-11-27T00:24:09.012Z,4.90
2022-11-27T00:24:41.008Z,4.70
2022-11-27T00:25:12.985Z,4.70
2022-11-27T00:25:51.728Z,4.70
2022-11-27T00:26:24.414Z,4.70
2022-11-27T00:26:57.176Z,4.70
2022-11-27T00:27:28.947Z,4.70
2022-11-27T00:28:00.755Z,4.70
2022-11-27T00:28:33.651Z,4.70
2022-11-27T00:29:05.898Z,4.70
2022-11-27T00:29:37.695Z,4.70
2022-11-27T00:30:11.352Z,4.70
2022-11-27T00:30:43.233Z,4.70
2022-11-27T00:31:17.618Z,4.70
2022-11-27T00:31:50.462Z,4.70
2022-11-27T00:32:22.247Z,4.70
2022-11-27T00:32:54.030Z,4.70
2022-11-27T00:33:26.895Z,4.70
2022-11-27T00:34:00.593Z,4.70
2022-11-27T00:34:33.448Z,4.70
2022-11-27T00:35:06.115Z,4.70
2022-11-27T00:35:39.068Z,4.80
2022-11-27T00:36:12.530Z,4.80
2022-11-27T00:36:48.335Z,4.80
2022-11-27T00:37:20.316Z,4.80
2022-11-27T00:37:53.150Z,4.80
2022-11-27T00:38:24.946Z,4.70
2022-11-27T00:38:56.831Z,4.70
2022-11-27T00:39:29.766Z,4.70
2022-11-27T00:40:01.608Z,4.70
2022-11-27T00:40:33.399Z,4.70
2022-11-27T00:41:08.014Z,4.70
2022-11-27T00:41:39.856Z,4.70
2022-11-27T00:42:12.634Z,4.70
2022-11-27T00:42:44.429Z,4.70
2022-11-27T00:43:16.208Z,4.70
2022-11-27T00:43:49.574Z,4.70
2022-11-27T00:44:21.363Z,4.70
2022-11-27T00:44:53.364Z,4.70
2022-11-27T00:45:26.202Z,4.70
2022-11-27T00:45:58.076Z,4.70
2022-11-27T00:46:32.188Z,4.70
2022-11-27T00:47:05.116Z,4.70
2022-11-27T00:47:36.931Z,4.70
2022-11-27T00:48:08.708Z,4.70
2022-11-27T00:48:41.591Z,4.70
2022-11-27T00:49:14.955Z,4.70
2022-11-27T00:49:47.680Z,4.70
2022-11-27T00:50:19.663Z,4.70
2022-11-27T00:50:51.505Z,4.70
2022-11-27T00:51:25.617Z,4.70
2022-11-27T00:51:58.982Z,4.70
2022-11-27T00:52:31.061Z,4.70
2022-11-27T00:53:03.947Z,4.70
2022-11-27T00:53:35.910Z,4.70
2022-11-27T00:54:07.980Z,4.80
2022-11-27T00:54:41.007Z,4.80
2022-11-27T00:55:12.999Z,4.80
2022-11-27T00:55:46.463Z,4.80
2022-11-27T00:56:21.183Z,4.80
2022-11-27T00:56:52.978Z,4.90
2022-11-27T00:57:25.783Z,4.70
2022-11-27T00:57:58.574Z,4.70
2022-11-27T00:58:30.594Z,4.70
2022-11-27T00:59:02.523Z,4.60
2022-11-27T00:59:35.295Z,4.70
2022-11-27T01:00:08.278Z,4.50
2022-11-27T01:00:40.081Z,4.60
2022-11-27T01:01:18.447Z,4.60
2022-11-27T01:01:50.387Z,4.60
2022-11-27T01:02:23.512Z,4.60
2022-11-27T01:02:55.432Z,4.60
2022-11-27T01:03:28.376Z,4.60
2022-11-27T01:04:02.804Z,4.60
2022-11-27T01:04:34.568Z,4.60
2022-11-27T01:05:08.602Z,4.60
2022-11-27T01:05:40.417Z,4.60
2022-11-27T01:06:12.325Z,4.60
2022-11-27T01:06:46.045Z,4.60
2022-11-27T01:07:19.280Z,4.60
2022-11-27T01:07:51.311Z,4.60
2022-11-27T01:08:24.844Z,4.60
2022-11-27T01:08:57.743Z,4.60
2022-11-27T01:09:29.535Z,4.60
2022-11-27T01:10:02.483Z,4.60
2022-11-27T01:10:34.280Z,4.60
2022-11-27T01:11:06.407Z,4.60
2022-11-27T01:11:39.336Z,4.60
2022-11-27T01:12:11.125Z,4.60
2022-11-27T01:12:42.994Z,4.60
2022-11-27T01:13:15.760Z,4.60
2022-11-27T01:13:47.923Z,4.60
2022-11-27T01:14:20.735Z,4.60
2022-11-27T01:14:52.554Z,4.60
2022-11-27T01:15:24.355Z,4.60
2022-11-27T01:16:01.127Z,4.60
2022-11-27T01:16:33.966Z,4.60
2022-11-27T01:17:06.962Z,4.60
2022-11-27T01:17:38.765Z,4.60
2022-11-27T01:18:10.948Z,4.60
2022-11-27T01:18:45.341Z,4.60
2022-11-27T01:19:17.300Z,4.60
2022-11-27T01:19:49.179Z,4.60
2022-11-27T01:20:21.955Z,4.60
2022-11-27T01:20:53.826Z,4.60
2022-11-27T01:21:27.910Z,4.60
2022-11-27T01:22:00.676Z,4.60
2022-11-27T01:22:34.576Z,4.60
2022-11-27T01:23:06.635Z,4.60
2022-11-27T01:23:39.545Z,4.60
2022-11-27T01:24:12.862Z,4.60
2022-11-27T01:24:44.667Z,4.60
2022-11-27T01:25:17.409Z,4.60
2022-11-27T01:25:49.603Z,4.60
2022-11-27T01:26:22.006Z,4.60
2022-11-27T01:26:54.765Z,4.60
2022-11-27T01:27:26.593Z,4.60
2022-11-27T01:27:58.379Z,4.60
2022-11-27T01:28:31.815Z,4.60
2022-11-27T01:29:03.872Z,4.60
2022-11-27T01:29:35.779Z,4.60
2022-11-27T01:30:09.876Z,4.50
2022-11-27T01:30:41.671Z,4.50
2022-11-27T01:31:16.703Z,4.40
2022-11-27T01:31:49.725Z,4.40
2022-11-27T01:32:21.600Z,4.50
2022-11-27T01:32:53.441Z,4.50
2022-11-27T01:33:26.528Z,4.50
2022-11-27T01:34:00.399Z,4.50
2022-11-27T01:34:32.183Z,4.50
2022-11-27T01:35:05.328Z,4.50
2022-11-27T01:35:37.167Z,4.50
2022-11-27T01:36:11.682Z,4.40
2022-11-27T01:36:44.895Z,4.40
2022-11-27T01:37:16.714Z,4.30
2022-11-27T01:37:49.848Z,4.30
2022-11-27T01:38:23.300Z,4.20
2022-11-27T01:38:55.404Z,4.20
2022-11-27T01:39:28.139Z,4.20
2022-11-27T01:40:00.135Z,4.20
2022-11-27T01:40:31.986Z,4.20
2022-11-27T01:41:08.071Z,4.20
2022-11-27T01:41:39.975Z,4.10
2022-11-27T01:42:12.008Z,4.20
2022-11-27T01:42:44.879Z,4.20
2022-11-27T01:43:16.691Z,4.30
2022-11-27T01:43:50.405Z,4.20
2022-11-27T01:44:52.760Z,4.20
2022-11-27T01:45:24.611Z,4.20
2022-11-27T01:45:56.568Z,4.20
2022-11-27T01:46:34.147Z,4.30
2022-11-27T01:47:11.878Z,4.30
2022-11-27T01:47:47.736Z,4.30
2022-11-27T01:48:20.529Z,4.30
2022-11-27T01:48:54.052Z,4.30
2022-11-27T01:49:30.516Z,4.30
2022-11-27T01:50:17.799Z,4.30
2022-11-27T01:50:49.618Z,4.30
2022-11-27T01:51:22.850Z,4.30
2022-11-27T01:51:58.885Z,4.30
2022-11-27T01:52:34.782Z,4.30
2022-11-27T01:53:14.931Z,4.30
2022-11-27T01:53:47.325Z,4.30
2022-11-27T01:54:24.214Z,4.40
2022-11-27T01:55:00.991Z,4.40
2022-11-27T01:55:35.904Z,4.40
2022-11-27T01:56:09.492Z,4.40
2022-11-27T01:56:46.240Z,4.40
2022-11-27T01:57:21.342Z,4.40
2022-11-27T01:57:57.420Z,4.40
2022-11-27T01:58:31.749Z,4.40
2022-11-27T01:59:04.296Z,4.40
2022-11-27T01:59:36.411Z,4.40
2022-11-27T02:00:12.966Z,4.40
2022-11-27T02:00:44.832Z,4.40
2022-11-27T02:01:17.782Z,4.40
2022-11-27T02:01:50.220Z,4.40
2022-11-27T02:02:22.231Z,4.40
2022-11-27T02:02:55.326Z,4.40
2022-11-27T02:03:27.819Z,4.40
2022-11-27T02:04:01.660Z,4.40
2022-11-27T02:04:34.460Z,4.40
2022-11-27T02:05:06.700Z,4.50
2022-11-27T02:05:38.516Z,4.50
2022-11-27T02:06:13.414Z,4.50
2022-11-27T02:06:46.573Z,4.40
2022-11-27T02:07:18.488Z,4.40
2022-11-27T02:07:53.064Z,4.40
2022-11-27T02:08:26.497Z,4.40
2022-11-27T02:08:58.404Z,4.40
2022-11-27T02:09:32.116Z,4.40
2022-11-27T02:10:05.702Z,4.40
2022-11-27T02:10:47.500Z,4.40
2022-11-27T02:11:25.126Z,4.40
2022-11-27T02:12:02.252Z,4.40
2022-11-27T02:12:41.062Z,4.40
2022-11-27T02:13:16.788Z,4.40
2022-11-27T02:13:54.482Z,4.40
2022-11-27T02:14:34.588Z,4.40
2022-11-27T02:15:11.870Z,4.40
2022-11-27T02:15:48.573Z,4.40
2022-11-27T02:16:29.465Z,4.40
2022-11-27T02:17:10.116Z,4.40
2022-11-27T02:17:49.739Z,4.40
2022-11-27T02:18:27.435Z,4.30
2022-11-27T02:19:08.289Z,4.30
2022-11-27T02:19:55.528Z,4.30
2022-11-27T02:20:36.521Z,4.30
2022-11-27T02:21:19.947Z,4.30
2022-11-27T02:21:57.383Z,4.30
2022-11-27T02:22:39.361Z,4.30
2022-11-27T02:23:32.248Z,4.30
2022-11-27T02:24:43.875Z,4.20
2022-11-27T02:25:28.494Z,4.20
2022-11-27T02:26:30.744Z,4.20
2022-11-27T02:27:22.171Z,4.20
2022-11-27T02:28:24.535Z,4.10
2022-11-27T02:29:02.127Z,4.10
2022-11-27T02:29:36.179Z,4.00
2022-11-27T02:30:08.822Z,4.10
2022-11-27T02:30:44.712Z,4.10
2022-11-27T02:31:23.234Z,4.10
2022-11-27T02:31:59.973Z,4.10
2022-11-27T02:32:39.021Z,4.00
2022-11-27T02:33:12.750Z,4.10
2022-11-27T02:33:49.378Z,4.10
2022-11-27T02:34:25.784Z,4.10
2022-11-27T02:35:04.211Z,4.10
2022-11-27T02:35:42.732Z,4.10
2022-11-27T02:36:19.569Z,4.10
2022-11-27T02:36:58.313Z,4.10
2022-11-27T02:37:35.391Z,4.00
2022-11-27T02:38:10.565Z,4.10
2022-11-27T02:38:47.962Z,4.10
2022-11-27T02:39:27.407Z,4.10
2022-11-27T02:40:03.888Z,4.10
2022-11-27T02:40:39.878Z,4.10
2022-11-27T02:41:17.378Z,4.10
2022-11-27T02:41:54.183Z,4.10
2022-11-27T02:42:29.627Z,4.10
2022-11-27T02:43:05.906Z,4.10
2022-11-27T02:43:40.745Z,4.10
2022-11-27T02:44:17.032Z,4.10
2022-11-27T02:44:56.994Z,4.00
2022-11-27T02:45:34.177Z,4.00
2022-11-27T02:46:08.863Z,4.00
2022-11-27T02:46:42.519Z,4.00
2022-11-27T02:47:16.320Z,4.00
2022-11-27T02:47:50.300Z,4.00
2022-11-27T02:48:27.064Z,4.00
2022-11-27T02:49:04.549Z,4.00
2022-11-27T02:49:37.886Z,4.00
2022-11-27T02:50:14.798Z,4.10
2022-11-27T02:50:48.563Z,4.00
2022-11-27T02:51:23.852Z,4.10
2022-11-27T02:52:00.056Z,4.10
2022-11-27T02:52:32.737Z,4.00
2022-11-27T02:53:09.066Z,4.10
2022-11-27T02:53:46.285Z,4.10
2022-11-27T02:54:24.494Z,4.10
2022-11-27T02:55:01.401Z,4.10
2022-11-27T02:55:36.905Z,4.10
2022-11-27T02:56:13.628Z,4.10
2022-11-27T02:56:48.135Z,4.10
2022-11-27T02:57:20.804Z,4.10
2022-11-27T02:57:57.440Z,4.10
2022-11-27T02:58:30.319Z,4.00
2022-11-27T02:59:06.309Z,4.10
2022-11-27T02:59:44.227Z,4.10
2022-11-27T03:00:17.052Z,4.10
2022-11-27T03:00:50.802Z,4.10
2022-11-27T03:01:25.368Z,4.00
2022-11-27T03:02:00.638Z,4.00
2022-11-27T03:02:36.920Z,4.00
2022-11-27T03:03:13.361Z,4.00
2022-11-27T03:03:50.146Z,4.00
2022-11-27T03:04:28.279Z,4.00
2022-11-27T03:05:04.811Z,4.00
2022-11-27T03:05:42.295Z,4.00
2022-11-27T03:06:20.589Z,4.00
2022-11-27T03:06:56.938Z,4.00
2022-11-27T03:07:37.582Z,4.00
2022-11-27T03:08:18.833Z,4.00
2022-11-27T03:08:54.992Z,4.00
2022-11-27T03:09:32.094Z,4.00
2022-11-27T03:10:10.034Z,4.00
2022-11-27T03:10:47.991Z,4.00
2022-11-27T03:11:19.807Z,3.90
2022-11-27T03:11:52.977Z,3.90
2022-11-27T03:12:24.951Z,3.90
2022-11-27T03:12:57.454Z,4.00
2022-11-27T03:13:31.622Z,4.00
2022-11-27T03:14:06.338Z,4.00
2022-11-27T03:14:42.701Z,4.00
2022-11-27T03:15:16.037Z,4.00
2022-11-27T03:15:57.253Z,4.00
2022-11-27T03:16:37.280Z,4.00
2022-11-27T03:17:19.197Z,4.00
2022-11-27T03:17:57.569Z,4.00
2022-11-27T03:18:38.961Z,3.90
2022-11-27T03:19:19.679Z,4.00
2022-11-27T03:19:57.156Z,4.00
2022-11-27T03:20:32.826Z,3.90
2022-11-27T03:21:14.367Z,4.00
2022-11-27T03:21:50.888Z,4.00
2022-11-27T03:22:24.044Z,4.00
2022-11-27T03:22:56.606Z,4.00
2022-11-27T03:23:28.511Z,4.00
2022-11-27T03:24:02.040Z,4.00
2022-11-27T03:24:35.490Z,4.00
2022-11-27T03:25:08.854Z,4.00
2022-11-27T03:25:40.702Z,4.00
2022-11-27T03:26:12.527Z,4.00
2022-11-27T03:26:45.465Z,4.00
2022-11-27T03:27:22.919Z,4.10
2022-11-27T03:27:59.016Z,4.00
2022-11-27T03:28:31.498Z,4.00
2022-11-27T03:29:07.010Z,4.00
2022-11-27T03:29:46.726Z,4.00
2022-11-27T03:30:18.770Z,4.00
2022-11-27T03:30:50.638Z,4.00
2022-11-27T03:31:24.479Z,4.00
2022-11-27T03:31:57.329Z,4.00
2022-11-27T03:32:30.920Z,4.00
2022-11-27T03:33:03.874Z,4.00
2022-11-27T03:33:35.742Z,4.00
2022-11-27T03:34:08.451Z,4.00
2022-11-27T03:34:42.324Z,4.00
2022-11-27T03:35:18.603Z,4.00
2022-11-27T03:35:52.838Z,4.00
2022-11-27T03:36:25.744Z,4.00
2022-11-27T03:36:57.549Z,4.00
2022-11-27T03:37:29.490Z,4.00
2022-11-27T03:38:02.340Z,3.90
2022-11-27T03:38:34.145Z,3.90
2022-11-27T03:39:06.082Z,3.90
2022-11-27T03:39:39.136Z,3.90
2022-11-27T03:40:12.119Z,3.90
2022-11-27T03:40:53.122Z,3.90
2022-11-27T03:41:34.105Z,3.90
2022-11-27T03:42:16.107Z,3.90
2022-11-27T03:42:59.410Z,3.90
2022-11-27T03:43:37.118Z,3.80
2022-11-27T03:44:17.634Z,3.80
2022-11-27T03:44:58.777Z,3.80
2022-11-27T03:45:37.995Z,3.80
2022-11-27T03:46:14.844Z,3.80
2022-11-27T03:46:56.830Z,3.80
2022-11-27T03:47:41.162Z,3.80
2022-11-27T03:48:25.512Z,3.80
2022-11-27T03:49:02.785Z,3.80
2022-11-27T03:49:48.647Z,3.80
2022-11-27T03:50:33.126Z,3.80
2022-11-27T03:51:11.388Z,3.80
2022-11-27T03:51:51.781Z,3.80
2022-11-27T03:52:32.416Z,3.80
2022-11-27T03:53:10.832Z,3.70
2022-11-27T03:53:53.431Z,3.70
2022-11-27T03:54:39.601Z,3.70
2022-11-27T03:55:21.963Z,3.70
2022-11-27T03:55:59.788Z,3.70
2022-11-27T03:56:38.074Z,3.70
2022-11-27T03:57:18.136Z,3.70
2022-11-27T03:57:56.499Z,3.70
2022-11-27T03:58:34.190Z,3.70
2022-11-27T03:59:11.152Z,3.70
2022-11-27T03:59:45.795Z,3.70
2022-11-27T04:00:19.530Z,3.70
2022-11-27T04:00:54.165Z,3.70
2022-11-27T04:01:27.715Z,3.70
2022-11-27T04:01:59.655Z,3.70
2022-11-27T04:02:41.875Z,3.70
2022-11-27T04:03:14.140Z,3.70
2022-11-27T04:03:46.009Z,3.70
2022-11-27T04:04:19.093Z,3.70
2022-11-27T04:04:50.932Z,3.70
2022-11-27T04:05:22.866Z,3.70
2022-11-27T04:05:55.690Z,3.70
2022-11-27T04:06:27.553Z,3.70
2022-11-27T04:06:59.432Z,3.60
2022-11-27T04:07:32.301Z,3.60
2022-11-27T04:08:04.558Z,3.60
2022-11-27T04:08:37.295Z,3.60
2022-11-27T04:09:09.186Z,3.60
2022-11-27T04:09:40.986Z,3.60
2022-11-27T04:10:14.150Z,3.60
2022-11-27T04:10:46.411Z,3.60
2022-11-27T04:11:19.202Z,3.60
2022-11-27T04:11:50.984Z,3.60
2022-11-27T04:12:22.780Z,3.60
2022-11-27T04:12:55.486Z,3.60
2022-11-27T04:13:27.329Z,3.60
2022-11-27T04:14:00.151Z,3.60
2022-11-27T04:14:31.919Z,3.60
2022-11-27T04:15:04.662Z,3.60
2022-11-27T04:15:38.831Z,3.60
2022-11-27T04:16:10.833Z,3.60
2022-11-27T04:16:42.724Z,3.60
2022-11-27T04:17:15.556Z,3.60
2022-11-27T04:17:47.392Z,3.60
2022-11-27T04:18:19.188Z,3.60
2022-11-27T04:18:51.944Z,3.60
2022-11-27T04:19:23.716Z,3.60
2022-11-27T04:19:55.559Z,3.60
2022-11-27T04:20:29.378Z,3.60
2022-11-27T04:21:01.185Z,3.70
2022-11-27T04:21:33.949Z,3.70
2022-11-27T04:22:05.818Z,3.60
2022-11-27T04:22:37.665Z,3.60
2022-11-27T04:23:11.101Z,3.60
2022-11-27T04:23:43.116Z,3.60
2022-11-27T04:24:15.106Z,3.60
2022-11-27T04:24:47.899Z,3.60
2022-11-27T04:25:19.711Z,3.60
2022-11-27T04:25:52.565Z,3.50
2022-11-27T04:26:25.295Z,3.50
2022-11-27T04:26:57.085Z,3.50
2022-11-27T04:27:29.182Z,3.50
2022-11-27T04:28:02.140Z,3.50
2022-11-27T04:28:34.039Z,3.50
2022-11-27T04:29:05.848Z,3.50
2022-11-27T04:29:38.647Z,3.50
2022-11-27T04:30:11.459Z,3.50
2022-11-27T04:30:45.068Z,3.50
2022-11-27T04:31:18.057Z,3.50
2022-11-27T04:31:49.914Z,3.50
2022-11-27T04:32:21.719Z,3.50
2022-11-27T04:32:54.516Z,3.50
2022-11-27T04:33:26.454Z,3.60
2022-11-27T04:33:58.251Z,3.50
2022-11-27T04:34:31.059Z,3.60
2022-11-27T04:35:02.880Z,3.50
2022-11-27T04:35:34.656Z,3.60
2022-11-27T04:36:08.012Z,3.60
2022-11-27T04:36:39.950Z,3.50
2022-11-27T04:37:11.986Z,3.50
2022-11-27T04:37:44.819Z,3.50
2022-11-27T04:38:16.637Z,3.50
2022-11-27T04:38:48.495Z,3.50
2022-11-27T04:39:21.285Z,3.60
2022-11-27T04:39:53.080Z,3.60
2022-11-27T04:40:25.073Z,3.50
2022-11-27T04:40:58.348Z,3.60
2022-11-27T04:41:30.138Z,3.50
2022-11-27T04:42:01.952Z,3.60
2022-11-27T04:42:34.683Z,3.60
2022-11-27T04:43:06.488Z,3.60
2022-11-27T04:43:38.323Z,3.60
2022-11-27T04:44:11.732Z,3.60
2022-11-27T04:44:44.545Z,3.60
2022-11-27T04:45:16.711Z,3.60
2022-11-27T04:45:49.969Z,3.50
2022-11-27T04:46:23.072Z,3.50
2022-11-27T04:46:55.020Z,3.50
2022-11-27T04:47:27.315Z,3.50
2022-11-27T04:48:00.160Z,3.50
2022-11-27T04:48:31.976Z,3.50
2022-11-27T04:49:04.455Z,3.50
2022-11-27T04:49:37.274Z,3.50
2022-11-27T04:50:09.960Z,3.50
2022-11-27T04:50:41.896Z,3.50
2022-11-27T04:51:14.677Z,3.50
2022-11-27T04:51:46.513Z,3.60
2022-11-27T04:52:18.354Z,3.50
2022-11-27T04:52:50.242Z,3.50
2022-11-27T04:53:23.058Z,3.50
2022-11-27T04:53:54.997Z,3.50
2022-11-27T04:54:26.782Z,3.60
2022-11-27T04:55:00.437Z,3.50
2022-11-27T04:55:32.591Z,3.50
2022-11-27T04:56:04.876Z,3.50
2022-11-27T04:56:37.737Z,3.50
2022-11-27T04:57:09.512Z,3.50
2022-11-27T04:57:41.346Z,3.50
2022-11-27T04:58:14.152Z,3.50
2022-11-27T04:58:45.977Z,3.50
2022-11-27T04:59:18.016Z,3.50
2022-11-27T04:59:50.840Z,3.60
2022-11-27T05:00:22.828Z,3.50
2022-11-27T05:00:56.035Z,3.50
2022-11-27T05:01:28.879Z,3.60
2022-11-27T05:02:00.778Z,3.50
2022-11-27T05:02:32.639Z,3.60
2022-11-27T05:03:05.657Z,3.60
2022-11-27T05:03:37.975Z,3.50
2022-11-27T05:04:09.792Z,3.60
2022-11-27T05:04:42.894Z,3.60
2022-11-27T05:05:14.975Z,3.60
2022-11-27T05:05:55.303Z,3.60
2022-11-27T05:06:28.128Z,3.60
2022-11-27T05:06:59.948Z,3.60
2022-11-27T05:07:31.832Z,3.60
2022-11-27T05:08:04.916Z,3.60
2022-11-27T05:08:36.715Z,3.60
2022-11-27T05:09:08.548Z,3.60
2022-11-27T05:09:41.393Z,3.70
2022-11-27T05:10:13.235Z,3.60
2022-11-27T05:10:46.774Z,3.60
2022-11-27T05:11:19.537Z,3.60
2022-11-27T05:11:51.420Z,3.60
2022-11-27T05:12:23.486Z,3.60
2022-11-27T05:12:56.255Z,3.50
2022-11-27T05:13:28.044Z,3.60
2022-11-27T05:14:18.080Z,3.60
2022-11-27T05:14:51.045Z,3.60
2022-11-27T05:15:22.844Z,3.60
2022-11-27T05:15:56.038Z,3.60
2022-11-27T05:16:27.924Z,3.60
2022-11-27T05:17:01.666Z,3.60
2022-11-27T05:17:33.449Z,3.60
2022-11-27T05:18:05.695Z,3.60
2022-11-27T05:18:38.456Z,3.60
2022-11-27T05:19:10.916Z,3.60
2022-11-27T05:19:42.716Z,3.60
2022-11-27T05:20:15.500Z,3.60
2022-11-27T05:20:47.469Z,3.60
2022-11-27T05:21:19.283Z,3.50
2022-11-27T05:21:52.632Z,3.50
2022-11-27T05:22:24.464Z,3.50
2022-11-27T05:22:57.233Z,3.50
2022-11-27T05:23:29.520Z,3.40
2022-11-27T05:24:01.340Z,3.50
2022-11-27T05:24:34.363Z,3.50
2022-11-27T05:25:06.727Z,3.50
2022-11-27T05:25:38.869Z,3.50
2022-11-27T05:26:10.634Z,3.60
2022-11-27T05:26:43.568Z,3.60
2022-11-27T05:27:15.779Z,3.60
2022-11-27T05:27:47.582Z,3.60
2022-11-27T05:28:26.285Z,3.60
2022-11-27T05:28:58.595Z,3.60
2022-11-27T05:29:31.498Z,3.60
2022-11-27T05:30:03.610Z,3.60
2022-11-27T05:30:35.435Z,3.60
2022-11-27T05:31:09.598Z,3.60
2022-11-27T05:31:41.610Z,3.60
2022-11-27T05:32:14.424Z,3.70
2022-11-27T05:32:46.216Z,3.60
2022-11-27T05:33:19.220Z,3.60
2022-11-27T05:33:52.336Z,3.60
2022-11-27T05:34:24.410Z,3.60
2022-11-27T05:34:57.181Z,3.60
2022-11-27T05:35:28.988Z,3.60
2022-11-27T05:36:00.807Z,3.60
2022-11-27T05:36:34.863Z,3.60
2022-11-27T05:37:06.811Z,3.60
2022-11-27T05:37:38.592Z,3.60
2022-11-27T05:38:11.343Z,3.60
2022-11-27T05:38:43.181Z,3.60
2022-11-27T05:39:15.251Z,3.60
2022-11-27T05:39:48.079Z,3.60
2022-11-27T05:40:19.865Z,3.60
2022-11-27T05:40:51.640Z,3.60
2022-11-27T05:41:24.880Z,3.60
2022-11-27T05:41:56.749Z,3.60
2022-11-27T05:42:29.524Z,3.50
2022-11-27T05:43:01.609Z,3.50
2022-11-27T05:43:33.510Z,3.50
2022-11-27T05:44:06.988Z,3.50
2022-11-27T05:44:39.192Z,3.50
2022-11-27T05:45:11.418Z,3.50
2022-11-27T05:45:44.158Z,3.50
2022-11-27T05:46:19.147Z,3.50
2022-11-27T05:46:52.135Z,3.50
2022-11-27T05:47:23.999Z,3.50
2022-11-27T05:47:55.807Z,3.40
2022-11-27T05:48:28.563Z,3.40
2022-11-27T05:49:00.602Z,3.40
2022-11-27T05:49:33.382Z,3.40
2022-11-27T05:50:06.266Z,3.40
2022-11-27T05:50:38.747Z,3.40
2022-11-27T05:51:11.711Z,3.50
2022-11-27T05:51:50.361Z,3.50
2022-11-27T05:52:23.631Z,3.50
2022-11-27T05:52:55.427Z,3.50
2022-11-27T05:53:27.436Z,3.50
2022-11-27T05:53:59.320Z,3.50
2022-11-27T05:54:32.075Z,3.50
2022-11-27T05:55:04.309Z,3.50
2022-11-27T05:55:36.106Z,3.50
2022-11-27T05:56:10.544Z,3.50
2022-11-27T05:56:43.435Z,3.50
2022-11-27T05:57:15.240Z,3.50
2022-11-27T05:57:47.099Z,3.50
2022-11-27T05:58:19.015Z,3.50
2022-11-27T05:58:51.967Z,3.60
2022-11-27T05:59:23.915Z,3.60
2022-11-27T05:59:55.697Z,3.60
2022-11-27T06:00:28.466Z,3.60
2022-11-27T06:01:00.632Z,3.50
2022-11-27T06:01:34.799Z,3.50
2022-11-27T06:02:06.665Z,3.50
2022-11-27T06:02:38.617Z,3.60
2022-11-27T06:03:11.857Z,3.60
2022-11-27T06:03:44.133Z,3.60
2022-11-27T06:04:16.976Z,3.60
2022-11-27T06:04:48.783Z,3.60
2022-11-27T06:05:20.593Z,3.60
2022-11-27T06:05:54.117Z,3.50
2022-11-27T06:06:26.270Z,3.60
2022-11-27T06:06:58.047Z,3.60
2022-11-27T06:07:32.430Z,3.60
2022-11-27T06:08:04.234Z,3.60
2022-11-27T06:08:36.823Z,3.50
2022-11-27T06:09:13.189Z,3.50
2022-11-27T06:09:45.228Z,3.50
2022-11-27T06:10:17.226Z,3.60
2022-11-27T06:10:50.654Z,3.60
2022-11-27T06:11:22.855Z,3.60
2022-11-27T06:11:54.688Z,3.60
2022-11-27T06:12:27.444Z,3.60
2022-11-27T06:12:59.325Z,3.60
2022-11-27T06:13:31.145Z,3.60
2022-11-27T06:14:03.955Z,3.60
2022-11-27T06:14:36.040Z,3.60
2022-11-27T06:15:08.489Z,3.60
2022-11-27T06:15:42.180Z,3.60
2022-11-27T06:16:16.412Z,3.60
2022-11-27T06:16:50.660Z,3.60
2022-11-27T06:17:22.454Z,3.60
2022-11-27T06:17:54.270Z,3.60
2022-11-27T06:18:27.047Z,3.60
2022-11-27T06:18:58.847Z,3.60
2022-11-27T06:19:32.259Z,3.60
2022-11-27T06:20:04.592Z,3.60
2022-11-27T06:20:42.240Z,3.60
2022-11-27T06:21:16.694Z,3.60
2022-11-27T06:21:48.455Z,3.50
2022-11-27T06:22:20.255Z,3.50
2022-11-27T06:22:53.048Z,3.50
2022-11-27T06:23:24.859Z,3.50
2022-11-27T06:23:56.951Z,3.50
2022-11-27T06:24:29.720Z,3.40
2022-11-27T06:25:01.529Z,3.40
2022-11-27T06:25:33.478Z,3.50
2022-11-27T06:26:14.924Z,3.50
2022-11-27T06:26:46.892Z,3.40
2022-11-27T06:27:18.693Z,3.40
2022-11-27T06:27:51.840Z,3.40
2022-11-27T06:28:23.621Z,3.40
2022-11-27T06:28:57.732Z,3.40
2022-11-27T06:29:29.539Z,3.40
2022-11-27T06:30:01.556Z,3.30
2022-11-27T06:30:34.342Z,3.30
2022-11-27T06:31:09.907Z,3.30
2022-11-27T06:31:45.983Z,3.20
2022-11-27T06:32:19.158Z,3.20
2022-11-27T06:32:50.950Z,3.20
2022-11-27T06:33:23.774Z,3.20
2022-11-27T06:33:56.367Z,3.30
2022-11-27T06:34:28.195Z,3.30
2022-11-27T06:35:01.081Z,3.30
2022-11-27T06:35:32.884Z,3.30
2022-11-27T06:36:05.776Z,3.30
2022-11-27T06:36:40.916Z,3.30
2022-11-27T06:37:13.580Z,3.40
2022-11-27T06:37:45.514Z,3.40
2022-11-27T06:38:18.276Z,3.40
2022-11-27T06:38:50.051Z,3.40
2022-11-27T06:39:22.806Z,3.40
2022-11-27T06:39:54.614Z,3.40
2022-11-27T06:40:26.458Z,3.40
2022-11-27T06:41:03.287Z,3.40
2022-11-27T06:41:35.067Z,3.50
2022-11-27T06:42:07.848Z,3.50
2022-11-27T06:42:39.608Z,3.50
2022-11-27T06:43:11.378Z,3.50
2022-11-27T06:43:44.181Z,3.50
2022-11-27T06:44:15.985Z,3.50
2022-11-27T06:44:47.956Z,3.50
2022-11-27T06:45:20.717Z,3.50
2022-11-27T06:45:56.841Z,3.50
2022-11-27T06:46:29.959Z,3.50
2022-11-27T06:47:02.810Z,3.60
2022-11-27T06:47:36.011Z,3.60
2022-11-27T06:48:07.835Z,3.50
2022-11-27T06:48:40.795Z,3.60
2022-11-27T06:49:12.639Z,3.60
2022-11-27T06:49:45.392Z,3.60
2022-11-27T06:50:17.540Z,3.60
2022-11-27T06:50:49.404Z,3.60
2022-11-27T06:51:24.251Z,3.50
2022-11-27T06:51:56.080Z,3.60
2022-11-27T06:52:27.883Z,3.50
2022-11-27T06:53:00.681Z,3.60
2022-11-27T06:53:34.467Z,3.60
2022-11-27T06:54:07.924Z,3.60
2022-11-27T06:54:39.858Z,3.60
2022-11-27T06:55:11.763Z,3.50
2022-11-27T06:55:44.535Z,3.60
2022-11-27T06:56:18.391Z,3.50
2022-11-27T06:56:51.613Z,3.50
2022-11-27T06:57:23.400Z,3.50
2022-11-27T06:57:55.169Z,3.50
2022-11-27T06:58:31.232Z,3.50
2022-11-27T06:59:03.303Z,3.50
2022-11-27T06:59:35.069Z,3.50
2022-11-27T07:00:09.219Z,3.50
2022-11-27T07:00:41.192Z,3.50
2022-11-27T07:01:15.023Z,3.50
2022-11-27T07:01:48.099Z,3.50
2022-11-27T07:02:20.034Z,3.50
2022-11-27T07:02:55.389Z,3.50
2022-11-27T07:03:28.488Z,3.50
2022-11-27T07:04:00.320Z,3.40
2022-11-27T07:04:32.150Z,3.50
2022-11-27T07:05:05.354Z,3.50
2022-11-27T07:05:37.564Z,3.50
2022-11-27T07:06:11.692Z,3.50
2022-11-27T07:06:44.848Z,3.50
2022-11-27T07:07:16.670Z,3.50
2022-11-27T07:07:48.542Z,3.50
2022-11-27T07:08:22.128Z,3.50
2022-11-27T07:08:55.069Z,3.50
2022-11-27T07:09:26.926Z,3.50
2022-11-27T07:09:59.702Z,3.50
2022-11-27T07:10:33.940Z,3.50
2022-11-27T07:11:07.867Z,3.50
2022-11-27T07:11:41.270Z,3.50
2022-11-27T07:12:13.128Z,3.50
2022-11-27T07:12:44.938Z,3.50
2022-11-27T07:13:17.843Z,3.50
2022-11-27T07:13:51.001Z,3.40
2022-11-27T07:14:23.828Z,3.40
2022-11-27T07:14:55.698Z,3.40
2022-11-27T07:15:27.630Z,3.40
2022-11-27T07:16:02.220Z,3.40
2022-11-27T07:16:36.239Z,3.40
2022-11-27T07:17:08.061Z,3.40
2022-11-27T07:17:41.605Z,3.40
2022-11-27T07:18:14.766Z,3.50
2022-11-27T07:18:49.178Z,3.40
2022-11-27T07:19:21.265Z,3.40
2022-11-27T07:19:54.019Z,3.30
2022-11-27T07:20:25.845Z,3.50
2022-11-27T07:20:57.800Z,3.40
2022-11-27T07:21:31.143Z,3.50
2022-11-27T07:22:02.954Z,3.40
2022-11-27T07:22:34.829Z,3.40
2022-11-27T07:23:07.681Z,3.50
2022-11-27T07:23:39.880Z,3.50
2022-11-27T07:24:11.681Z,3.50
2022-11-27T07:24:44.606Z,3.50
2022-11-27T07:25:16.711Z,3.50
2022-11-27T07:25:48.533Z,3.50
2022-11-27T07:26:23.549Z,3.50
2022-11-27T07:26:55.332Z,3.50
2022-11-27T07:27:27.162Z,3.50
2022-11-27T07:27:59.930Z,3.50
2022-11-27T07:28:31.710Z,3.50
2022-11-27T07:29:04.546Z,3.50
2022-11-27T07:29:36.303Z,3.50
2022-11-27T07:30:09.132Z,3.50
2022-11-27T07:30:41.961Z,3.50
2022-11-27T07:31:16.406Z,3.60